sensor_id;sensor_type;location;lat;lon;timestamp;pressure;altitude;pressure_sealevel;temperature;humidity
54900;BME280;40801;41.924;25.562;2023-02-02T00:01:32;99604.00;;;3.18;56.68
54900;BME280;40801;41.924;25.562;2023-02-02T00:03:57;99594.72;;;3.20;56.92
54900;BME280;40801;41.924;25.562;2023-02-02T00:06:24;99591.69;;;3.11;58.04
54900;BME280;40801;41.924;25.562;2023-02-02T00:08:50;99586.66;;;3.15;57.59
54900;BME280;40801;41.924;25.562;2023-02-02T00:11:17;99596.09;;;3.23;57.55
54900;BME280;40801;41.924;25.562;2023-02-02T00:13:43;99590.81;;;3.28;57.15
54900;BME280;40801;41.924;25.562;2023-02-02T00:16:37;99595.47;;;3.16;58.37
54900;BME280;40801;41.924;25.562;2023-02-02T00:19:10;99602.19;;;3.18;57.43
54900;BME280;40801;41.924;25.562;2023-02-02T00:21:36;99590.50;;;3.24;57.05
54900;BME280;40801;41.924;25.562;2023-02-02T00:24:03;99595.53;;;3.21;57.17
54900;BME280;40801;41.924;25.562;2023-02-02T00:26:29;99588.16;;;3.28;57.09
54900;BME280;40801;41.924;25.562;2023-02-02T00:28:54;99584.47;;;3.34;56.70
54900;BME280;40801;41.924;25.562;2023-02-02T00:31:20;99582.56;;;3.29;56.79
54900;BME280;40801;41.924;25.562;2023-02-02T00:33:47;99586.41;;;3.17;57.07
54900;BME280;40801;41.924;25.562;2023-02-02T00:36:13;99592.88;;;3.21;56.83
54900;BME280;40801;41.924;25.562;2023-02-02T00:38:38;99595.78;;;3.19;56.49
54900;BME280;40801;41.924;25.562;2023-02-02T00:41:04;99593.13;;;3.19;56.96
54900;BME280;40801;41.924;25.562;2023-02-02T00:43:29;99590.38;;;3.14;57.18
54900;BME280;40801;41.924;25.562;2023-02-02T00:45:55;99594.47;;;3.22;56.72
54900;BME280;40801;41.924;25.562;2023-02-02T00:48:21;99602.97;;;3.19;57.23
54900;BME280;40801;41.924;25.562;2023-02-02T00:50:46;99593.13;;;3.19;57.17
54900;BME280;40801;41.924;25.562;2023-02-02T00:53:12;99601.72;;;3.26;56.83
54900;BME280;40801;41.924;25.562;2023-02-02T00:55:37;99610.47;;;3.22;56.87
54900;BME280;40801;41.924;25.562;2023-02-02T00:58:03;99598.84;;;3.33;55.78
54900;BME280;40801;41.924;25.562;2023-02-02T01:00:28;99602.38;;;3.38;55.88
54900;BME280;40801;41.924;25.562;2023-02-02T01:02:54;99591.44;;;3.40;55.32
54900;BME280;40801;41.924;25.562;2023-02-02T01:05:21;99596.34;;;3.48;54.89
54900;BME280;40801;41.924;25.562;2023-02-02T01:07:46;99600.63;;;3.49;55.55
54900;BME280;40801;41.924;25.562;2023-02-02T01:12:41;99607.31;;;3.52;54.66
54900;BME280;40801;41.924;25.562;2023-02-02T01:15:07;99601.50;;;3.60;54.75
54900;BME280;40801;41.924;25.562;2023-02-02T01:17:32;99619.41;;;3.64;54.32
54900;BME280;40801;41.924;25.562;2023-02-02T01:19:58;99610.91;;;3.67;54.01
54900;BME280;40801;41.924;25.562;2023-02-02T01:22:24;99606.72;;;3.77;53.55
54900;BME280;40801;41.924;25.562;2023-02-02T01:24:49;99599.47;;;3.72;53.94
54900;BME280;40801;41.924;25.562;2023-02-02T01:27:15;99600.91;;;3.85;53.74
54900;BME280;40801;41.924;25.562;2023-02-02T01:29:41;99606.28;;;3.90;53.64
54900;BME280;40801;41.924;25.562;2023-02-02T01:32:06;99595.88;;;3.88;54.38
54900;BME280;40801;41.924;25.562;2023-02-02T01:34:32;99603.34;;;3.91;54.64
54900;BME280;40801;41.924;25.562;2023-02-02T01:36:58;99603.91;;;3.93;54.35
54900;BME280;40801;41.924;25.562;2023-02-02T01:39:23;99606.06;;;3.96;54.37
54900;BME280;40801;41.924;25.562;2023-02-02T01:41:49;99601.78;;;3.95;54.47
54900;BME280;40801;41.924;25.562;2023-02-02T01:47:18;99610.72;;;4.11;54.12
54900;BME280;40801;41.924;25.562;2023-02-02T01:49:45;99602.25;;;4.24;53.70
54900;BME280;40801;41.924;25.562;2023-02-02T01:52:13;99598.34;;;4.37;53.60
54900;BME280;40801;41.924;25.562;2023-02-02T01:54:51;99604.00;;;4.51;52.88
54900;BME280;40801;41.924;25.562;2023-02-02T01:57:23;99605.66;;;4.62;52.62
54900;BME280;40801;41.924;25.562;2023-02-02T01:59:53;99600.34;;;4.67;52.83
54900;BME280;40801;41.924;25.562;2023-02-02T02:02:19;99590.78;;;4.76;52.37
54900;BME280;40801;41.924;25.562;2023-02-02T02:04:46;99607.09;;;4.85;52.36
54900;BME280;40801;41.924;25.562;2023-02-02T02:07:11;99605.22;;;4.85;52.43
54900;BME280;40801;41.924;25.562;2023-02-02T02:09:37;99611.97;;;4.93;52.23
54900;BME280;40801;41.924;25.562;2023-02-02T02:12:09;99605.53;;;4.94;52.29
54900;BME280;40801;41.924;25.562;2023-02-02T02:14:37;99608.22;;;4.94;52.19
54900;BME280;40801;41.924;25.562;2023-02-02T02:21:39;99610.09;;;4.93;52.94
54900;BME280;40801;41.924;25.562;2023-02-02T02:27:37;99607.69;;;4.97;52.11
54900;BME280;40801;41.924;25.562;2023-02-02T02:33:02;99606.66;;;5.08;51.99
54900;BME280;40801;41.924;25.562;2023-02-02T02:35:41;99608.25;;;5.14;51.84
54900;BME280;40801;41.924;25.562;2023-02-02T02:38:25;99612.53;;;5.10;52.25
54900;BME280;40801;41.924;25.562;2023-02-02T02:40:57;99606.41;;;5.15;51.73
54900;BME280;40801;41.924;25.562;2023-02-02T02:43:36;99601.56;;;5.12;52.07
54900;BME280;40801;41.924;25.562;2023-02-02T02:46:02;99618.44;;;5.17;52.06
54900;BME280;40801;41.924;25.562;2023-02-02T02:48:29;99604.00;;;5.13;52.53
54900;BME280;40801;41.924;25.562;2023-02-02T02:51:07;99604.00;;;5.18;53.07
54900;BME280;40801;41.924;25.562;2023-02-02T02:53:33;99608.84;;;5.21;52.60
54900;BME280;40801;41.924;25.562;2023-02-02T02:56:19;99596.50;;;5.10;53.93
54900;BME280;40801;41.924;25.562;2023-02-02T03:05:07;99587.56;;;4.74;54.80
54900;BME280;40801;41.924;25.562;2023-02-02T03:07:39;99588.59;;;4.63;55.06
54900;BME280;40801;41.924;25.562;2023-02-02T03:10:08;99583.72;;;4.55;54.87
54900;BME280;40801;41.924;25.562;2023-02-02T03:12:43;99582.66;;;4.51;55.42
54900;BME280;40801;41.924;25.562;2023-02-02T03:15:09;99577.94;;;4.73;54.05
54900;BME280;40801;41.924;25.562;2023-02-02T03:17:34;99582.25;;;4.89;54.04
54900;BME280;40801;41.924;25.562;2023-02-02T03:20:00;99580.38;;;4.90;53.75
54900;BME280;40801;41.924;25.562;2023-02-02T03:22:25;99584.72;;;4.96;53.84
54900;BME280;40801;41.924;25.562;2023-02-02T03:24:51;99586.59;;;5.01;53.18
54900;BME280;40801;41.924;25.562;2023-02-02T03:27:16;99590.88;;;5.02;52.97
54900;BME280;40801;41.924;25.562;2023-02-02T03:29:42;99587.13;;;4.97;53.30
54900;BME280;40801;41.924;25.562;2023-02-02T03:32:07;99586.59;;;5.06;52.76
54900;BME280;40801;41.924;25.562;2023-02-02T03:34:32;99578.06;;;5.14;52.24
54900;BME280;40801;41.924;25.562;2023-02-02T03:36:58;99579.66;;;5.15;52.30
54900;BME280;40801;41.924;25.562;2023-02-02T03:39:23;99586.06;;;5.09;52.72
54900;BME280;40801;41.924;25.562;2023-02-02T03:41:49;99586.59;;;5.01;52.45
54900;BME280;40801;41.924;25.562;2023-02-02T03:44:14;99582.56;;;4.98;53.00
54900;BME280;40801;41.924;25.562;2023-02-02T03:46:39;99585.19;;;4.88;53.12
54900;BME280;40801;41.924;25.562;2023-02-02T03:49:05;99585.72;;;4.80;53.48
54900;BME280;40801;41.924;25.562;2023-02-02T03:51:30;99585.13;;;4.68;53.92
54900;BME280;40801;41.924;25.562;2023-02-02T03:53:55;99582.69;;;4.61;54.29
54900;BME280;40801;41.924;25.562;2023-02-02T03:56:21;99585.34;;;4.56;53.71
54900;BME280;40801;41.924;25.562;2023-02-02T03:58:46;99587.16;;;4.45;54.20
54900;BME280;40801;41.924;25.562;2023-02-02T04:01:12;99582.34;;;4.42;54.16
54900;BME280;40801;41.924;25.562;2023-02-02T04:03:39;99583.16;;;4.43;53.93
54900;BME280;40801;41.924;25.562;2023-02-02T04:06:04;99587.91;;;4.35;54.19
54900;BME280;40801;41.924;25.562;2023-02-02T04:08:30;99588.66;;;4.31;54.37
54900;BME280;40801;41.924;25.562;2023-02-02T04:10:56;99592.06;;;4.16;55.23
54900;BME280;40801;41.924;25.562;2023-02-02T04:13:22;99589.91;;;4.13;54.73
54900;BME280;40801;41.924;25.562;2023-02-02T04:15:47;99590.09;;;4.01;55.83
54900;BME280;40801;41.924;25.562;2023-02-02T04:18:12;99590.88;;;4.02;55.22
54900;BME280;40801;41.924;25.562;2023-02-02T04:20:38;99598.56;;;3.93;55.61
54900;BME280;40801;41.924;25.562;2023-02-02T04:23:03;99597.50;;;3.94;55.70
54900;BME280;40801;41.924;25.562;2023-02-02T04:25:29;99586.78;;;3.84;56.00
54900;BME280;40801;41.924;25.562;2023-02-02T04:27:54;99591.31;;;3.84;55.96
54900;BME280;40801;41.924;25.562;2023-02-02T04:30:20;99584.47;;;3.66;56.71
54900;BME280;40801;41.924;25.562;2023-02-02T04:32:45;99593.84;;;3.68;56.83
54900;BME280;40801;41.924;25.562;2023-02-02T04:35:11;99599.94;;;3.64;56.74
54900;BME280;40801;41.924;25.562;2023-02-02T04:37:36;99584.38;;;3.51;57.01
54900;BME280;40801;41.924;25.562;2023-02-02T04:40:02;99601.84;;;3.41;57.63
54900;BME280;40801;41.924;25.562;2023-02-02T04:42:28;99595.97;;;3.39;58.09
54900;BME280;40801;41.924;25.562;2023-02-02T04:44:56;99606.34;;;3.36;57.85
54900;BME280;40801;41.924;25.562;2023-02-02T04:47:21;99596.22;;;3.38;57.50
54900;BME280;40801;41.924;25.562;2023-02-02T04:49:47;99594.38;;;3.38;57.37
54900;BME280;40801;41.924;25.562;2023-02-02T04:52:12;99583.41;;;3.35;57.53
54900;BME280;40801;41.924;25.562;2023-02-02T04:54:37;99599.41;;;3.35;58.56
54900;BME280;40801;41.924;25.562;2023-02-02T04:57:03;99597.03;;;3.38;57.59
54900;BME280;40801;41.924;25.562;2023-02-02T04:59:28;99591.06;;;3.53;57.42
54900;BME280;40801;41.924;25.562;2023-02-02T05:01:58;99589.00;;;3.65;56.96
54900;BME280;40801;41.924;25.562;2023-02-02T05:04:23;99582.47;;;3.78;56.33
54900;BME280;40801;41.924;25.562;2023-02-02T05:06:49;99584.66;;;3.86;56.28
54900;BME280;40801;41.924;25.562;2023-02-02T05:09:14;99588.59;;;3.79;56.56
54900;BME280;40801;41.924;25.562;2023-02-02T05:11:40;99599.31;;;3.84;55.89
54900;BME280;40801;41.924;25.562;2023-02-02T05:14:08;99592.09;;;3.84;56.03
54900;BME280;40801;41.924;25.562;2023-02-02T05:16:34;99593.44;;;3.82;56.43
54900;BME280;40801;41.924;25.562;2023-02-02T05:18:59;99601.38;;;3.77;56.68
54900;BME280;40801;41.924;25.562;2023-02-02T05:21:25;99608.81;;;3.74;56.50
54900;BME280;40801;41.924;25.562;2023-02-02T05:23:50;99594.41;;;3.76;55.89
54900;BME280;40801;41.924;25.562;2023-02-02T05:26:19;99598.94;;;3.75;56.41
54900;BME280;40801;41.924;25.562;2023-02-02T05:28:46;99589.03;;;3.70;56.61
54900;BME280;40801;41.924;25.562;2023-02-02T05:31:12;99603.31;;;3.54;56.92
54900;BME280;40801;41.924;25.562;2023-02-02T05:33:38;99610.53;;;3.54;57.34
54900;BME280;40801;41.924;25.562;2023-02-02T05:36:04;99597.94;;;3.49;57.22
54900;BME280;40801;41.924;25.562;2023-02-02T05:38:30;99610.41;;;3.43;57.85
54900;BME280;40801;41.924;25.562;2023-02-02T05:40:55;99605.53;;;3.35;58.23
54900;BME280;40801;41.924;25.562;2023-02-02T05:43:24;99616.53;;;3.44;58.21
54900;BME280;40801;41.924;25.562;2023-02-02T05:45:50;99617.66;;;3.48;57.99
54900;BME280;40801;41.924;25.562;2023-02-02T05:48:15;99614.25;;;3.53;57.82
54900;BME280;40801;41.924;25.562;2023-02-02T05:50:41;99615.34;;;3.57;57.97
54900;BME280;40801;41.924;25.562;2023-02-02T05:53:10;99618.06;;;3.62;57.42
54900;BME280;40801;41.924;25.562;2023-02-02T05:55:37;99619.66;;;3.63;57.79
54900;BME280;40801;41.924;25.562;2023-02-02T05:58:02;99622.06;;;3.64;58.21
54900;BME280;40801;41.924;25.562;2023-02-02T06:00:28;99617.84;;;3.68;57.45
54900;BME280;40801;41.924;25.562;2023-02-02T06:02:53;99618.75;;;3.79;57.55
54900;BME280;40801;41.924;25.562;2023-02-02T06:05:18;99625.69;;;3.80;57.99
54900;BME280;40801;41.924;25.562;2023-02-02T06:07:44;99623.56;;;3.82;57.80
54900;BME280;40801;41.924;25.562;2023-02-02T06:10:09;99626.81;;;3.89;57.61
54900;BME280;40801;41.924;25.562;2023-02-02T06:12:35;99627.41;;;3.96;57.53
54900;BME280;40801;41.924;25.562;2023-02-02T06:15:00;99628.50;;;4.00;57.40
54900;BME280;40801;41.924;25.562;2023-02-02T06:17:26;99624.56;;;4.08;56.96
54900;BME280;40801;41.924;25.562;2023-02-02T06:19:51;99627.00;;;4.15;56.92
54900;BME280;40801;41.924;25.562;2023-02-02T06:22:16;99626.28;;;4.24;56.18
54900;BME280;40801;41.924;25.562;2023-02-02T06:24:42;99641.88;;;4.43;55.81
54900;BME280;40801;41.924;25.562;2023-02-02T06:27:07;99647.81;;;4.55;55.87
54900;BME280;40801;41.924;25.562;2023-02-02T06:29:33;99647.09;;;4.64;55.36
54900;BME280;40801;41.924;25.562;2023-02-02T06:31:58;99640.72;;;4.71;54.89
54900;BME280;40801;41.924;25.562;2023-02-02T06:34:23;99649.31;;;4.88;54.83
54900;BME280;40801;41.924;25.562;2023-02-02T06:36:49;99649.66;;;4.96;54.74
54900;BME280;40801;41.924;25.562;2023-02-02T06:39:14;99636.56;;;5.05;54.38
54900;BME280;40801;41.924;25.562;2023-02-02T06:41:40;99645.94;;;5.13;54.05
54900;BME280;40801;41.924;25.562;2023-02-02T06:44:05;99643.81;;;5.15;53.67
54900;BME280;40801;41.924;25.562;2023-02-02T06:46:31;99650.84;;;5.31;53.23
54900;BME280;40801;41.924;25.562;2023-02-02T06:48:56;99642.34;;;5.49;52.75
54900;BME280;40801;41.924;25.562;2023-02-02T06:51:21;99642.88;;;5.62;51.96
54900;BME280;40801;41.924;25.562;2023-02-02T06:53:47;99651.72;;;5.77;51.93
54900;BME280;40801;41.924;25.562;2023-02-02T06:56:13;99647.16;;;5.78;50.09
54900;BME280;40801;41.924;25.562;2023-02-02T06:58:39;99649.06;;;6.03;51.06
54900;BME280;40801;41.924;25.562;2023-02-02T07:01:10;99657.38;;;6.16;49.32
54900;BME280;40801;41.924;25.562;2023-02-02T07:03:36;99642.91;;;6.22;50.22
54900;BME280;40801;41.924;25.562;2023-02-02T07:06:21;99652.22;;;6.61;49.12
54900;BME280;40801;41.924;25.562;2023-02-02T07:08:47;99648.63;;;7.55;49.16
54900;BME280;40801;41.924;25.562;2023-02-02T07:11:14;99652.59;;;8.31;47.65
54900;BME280;40801;41.924;25.562;2023-02-02T07:13:39;99648.69;;;9.19;45.61
54900;BME280;40801;41.924;25.562;2023-02-02T07:16:05;99648.81;;;9.89;43.08
54900;BME280;40801;41.924;25.562;2023-02-02T07:18:32;99646.13;;;10.81;42.99
54900;BME280;40801;41.924;25.562;2023-02-02T07:20:58;99649.59;;;10.54;39.58
54900;BME280;40801;41.924;25.562;2023-02-02T07:23:28;99643.66;;;10.99;38.76
54900;BME280;40801;41.924;25.562;2023-02-02T07:26:08;99652.84;;;11.47;37.90
54900;BME280;40801;41.924;25.562;2023-02-02T07:28:34;99644.47;;;12.07;37.63
54900;BME280;40801;41.924;25.562;2023-02-02T07:31:10;99648.94;;;12.12;38.42
54900;BME280;40801;41.924;25.562;2023-02-02T07:33:36;99647.44;;;12.51;37.60
54900;BME280;40801;41.924;25.562;2023-02-02T07:36:04;99640.34;;;13.03;36.38
54900;BME280;40801;41.924;25.562;2023-02-02T07:38:30;99640.75;;;13.53;35.84
54900;BME280;40801;41.924;25.562;2023-02-02T07:40:55;99641.09;;;13.60;35.23
54900;BME280;40801;41.924;25.562;2023-02-02T07:43:24;99638.31;;;13.26;35.28
54900;BME280;40801;41.924;25.562;2023-02-02T07:45:49;99638.53;;;13.90;34.90
54900;BME280;40801;41.924;25.562;2023-02-02T07:48:15;99643.31;;;13.32;35.23
54900;BME280;40801;41.924;25.562;2023-02-02T07:50:40;99642.81;;;14.08;34.50
54900;BME280;40801;41.924;25.562;2023-02-02T07:53:05;99641.56;;;14.78;33.27
54900;BME280;40801;41.924;25.562;2023-02-02T07:55:31;99636.50;;;14.98;33.05
54900;BME280;40801;41.924;25.562;2023-02-02T07:57:57;99636.91;;;15.38;33.60
54900;BME280;40801;41.924;25.562;2023-02-02T12:36:37;99378.06;;;24.94;16.91
54900;BME280;40801;41.924;25.562;2023-02-02T12:41:29;99373.25;;;25.12;17.85
54900;BME280;40801;41.924;25.562;2023-02-02T12:45:22;99371.19;;;23.83;16.96
54900;BME280;40801;41.924;25.562;2023-02-02T12:50:03;99367.03;;;24.90;16.88
54900;BME280;40801;41.924;25.562;2023-02-02T12:58:10;99363.78;;;20.50;19.50
54900;BME280;40801;41.924;25.562;2023-02-02T13:00:56;99371.44;;;20.11;20.21
54900;BME280;40801;41.924;25.562;2023-02-02T13:06:27;99374.66;;;19.06;21.44
54900;BME280;40801;41.924;25.562;2023-02-02T13:11:51;99364.25;;;17.87;22.94
54900;BME280;40801;41.924;25.562;2023-02-02T13:14:23;99363.66;;;17.78;23.29
54900;BME280;40801;41.924;25.562;2023-02-02T13:16:53;99358.88;;;16.99;24.06
54900;BME280;40801;41.924;25.562;2023-02-02T13:19:49;99354.22;;;17.00;24.15
54900;BME280;40801;41.924;25.562;2023-02-02T13:22:25;99352.69;;;17.15;24.11
54900;BME280;40801;41.924;25.562;2023-02-02T13:24:54;99355.72;;;16.97;24.94
54900;BME280;40801;41.924;25.562;2023-02-02T13:27:21;99347.78;;;16.92;24.71
54900;BME280;40801;41.924;25.562;2023-02-02T13:29:54;99338.31;;;16.86;24.69
54900;BME280;40801;41.924;25.562;2023-02-02T13:32:35;99347.19;;;16.71;24.44
54900;BME280;40801;41.924;25.562;2023-02-02T13:35:17;99353.47;;;16.59;24.63
54900;BME280;40801;41.924;25.562;2023-02-02T13:40:27;99346.53;;;16.09;25.48
54900;BME280;40801;41.924;25.562;2023-02-02T13:43:10;99347.91;;;15.91;26.18
54900;BME280;40801;41.924;25.562;2023-02-02T13:53:43;99343.75;;;15.36;27.28
54900;BME280;40801;41.924;25.562;2023-02-02T14:01:44;99335.56;;;15.24;27.18
54900;BME280;40801;41.924;25.562;2023-02-02T14:04:23;99330.38;;;15.31;26.84
54900;BME280;40801;41.924;25.562;2023-02-02T14:09:28;99326.63;;;15.24;27.33
54900;BME280;40801;41.924;25.562;2023-02-02T14:12:06;99319.50;;;15.31;27.22
54900;BME280;40801;41.924;25.562;2023-02-02T14:14:32;99318.84;;;15.34;27.41
54900;BME280;40801;41.924;25.562;2023-02-02T14:17:04;99320.22;;;15.53;27.31
54900;BME280;40801;41.924;25.562;2023-02-02T14:32:26;99316.44;;;15.08;27.35
54900;BME280;40801;41.924;25.562;2023-02-02T14:34:49;99327.28;;;15.08;27.09
54900;BME280;40801;41.924;25.562;2023-02-02T14:39:57;99328.50;;;14.99;26.86
54900;BME280;40801;41.924;25.562;2023-02-02T14:45:30;99327.94;;;14.72;27.48
54900;BME280;40801;41.924;25.562;2023-02-02T14:48:01;99335.38;;;14.63;27.32
54900;BME280;40801;41.924;25.562;2023-02-02T14:50:52;99327.84;;;14.48;28.21
54900;BME280;40801;41.924;25.562;2023-02-02T14:55:59;99336.34;;;14.38;28.06
54900;BME280;40801;41.924;25.562;2023-02-02T14:58:28;99333.38;;;14.31;28.22
54900;BME280;40801;41.924;25.562;2023-02-02T15:01:07;99334.09;;;14.19;27.80
54900;BME280;40801;41.924;25.562;2023-02-02T15:17:47;99381.72;;;13.70;29.40
54900;BME280;40801;41.924;25.562;2023-02-02T15:23:45;99400.94;;;12.35;33.01
54900;BME280;40801;41.924;25.562;2023-02-02T15:26:19;99399.25;;;11.91;35.69
54900;BME280;40801;41.924;25.562;2023-02-02T15:28:56;99382.47;;;12.28;35.10
54900;BME280;40801;41.924;25.562;2023-02-02T15:31:45;99405.16;;;12.01;34.80
54900;BME280;40801;41.924;25.562;2023-02-02T15:34:38;99390.03;;;12.00;34.79
54900;BME280;40801;41.924;25.562;2023-02-02T15:37:07;99378.72;;;11.90;34.12
54900;BME280;40801;41.924;25.562;2023-02-02T15:39:38;99391.63;;;12.01;33.77
54900;BME280;40801;41.924;25.562;2023-02-02T15:42:14;99384.47;;;11.88;34.08
54900;BME280;40801;41.924;25.562;2023-02-02T15:44:59;99390.28;;;11.82;34.42
54900;BME280;40801;41.924;25.562;2023-02-02T15:47:30;99382.66;;;11.84;34.23
54900;BME280;40801;41.924;25.562;2023-02-02T15:49:58;99380.75;;;11.84;34.61
54900;BME280;40801;41.924;25.562;2023-02-02T15:52:29;99388.47;;;11.68;35.01
54900;BME280;40801;41.924;25.562;2023-02-02T15:55:00;99390.72;;;11.75;34.83
54900;BME280;40801;41.924;25.562;2023-02-02T15:59:51;99407.97;;;11.57;35.25
54900;BME280;40801;41.924;25.562;2023-02-02T16:02:22;99402.38;;;11.53;35.23
54900;BME280;40801;41.924;25.562;2023-02-02T16:04:49;99412.69;;;11.51;35.18
54900;BME280;40801;41.924;25.562;2023-02-02T16:07:17;99427.44;;;11.45;35.73
54900;BME280;40801;41.924;25.562;2023-02-02T16:09:44;99433.00;;;11.48;35.77
54900;BME280;40801;41.924;25.562;2023-02-02T16:12:15;99460.47;;;11.42;36.46
54900;BME280;40801;41.924;25.562;2023-02-02T16:14:49;99470.47;;;11.41;36.64
54900;BME280;40801;41.924;25.562;2023-02-02T16:17:20;99467.94;;;11.45;36.45
54900;BME280;40801;41.924;25.562;2023-02-02T16:19:46;99464.94;;;11.46;36.64
54900;BME280;40801;41.924;25.562;2023-02-02T16:22:17;99470.47;;;11.41;37.09
54900;BME280;40801;41.924;25.562;2023-02-02T16:24:53;99476.03;;;11.45;36.72
54900;BME280;40801;41.924;25.562;2023-02-02T16:27:22;99484.13;;;11.23;37.38
54900;BME280;40801;41.924;25.562;2023-02-02T16:29:50;99514.56;;;11.14;38.86
54900;BME280;40801;41.924;25.562;2023-02-02T16:32:36;99527.63;;;10.99;40.15
54900;BME280;40801;41.924;25.562;2023-02-02T16:35:05;99537.66;;;10.43;42.44
54900;BME280;40801;41.924;25.562;2023-02-02T16:37:33;99518.69;;;10.48;42.62
54900;BME280;40801;41.924;25.562;2023-02-02T16:40:28;99519.97;;;10.37;45.86
54900;BME280;40801;41.924;25.562;2023-02-02T16:43:27;99534.41;;;10.14;46.40
54900;BME280;40801;41.924;25.562;2023-02-02T16:45:55;99536.88;;;10.10;45.41
54900;BME280;40801;41.924;25.562;2023-02-02T16:48:31;99539.28;;;9.98;47.27
54900;BME280;40801;41.924;25.562;2023-02-02T16:53:43;99555.16;;;9.67;48.12
54900;BME280;40801;41.924;25.562;2023-02-02T16:58:58;99574.28;;;9.66;48.66
54900;BME280;40801;41.924;25.562;2023-02-02T17:01:33;99588.78;;;9.51;50.90
54900;BME280;40801;41.924;25.562;2023-02-02T17:04:00;99590.09;;;9.53;49.73
54900;BME280;40801;41.924;25.562;2023-02-02T17:06:33;99601.16;;;9.52;52.40
54900;BME280;40801;41.924;25.562;2023-02-02T17:09:26;99602.81;;;9.48;51.96
54900;BME280;40801;41.924;25.562;2023-02-02T17:11:57;99619.19;;;9.51;50.54
54900;BME280;40801;41.924;25.562;2023-02-02T17:14:30;99640.28;;;9.44;51.66
54900;BME280;40801;41.924;25.562;2023-02-02T17:16:56;99649.16;;;9.45;51.37
54900;BME280;40801;41.924;25.562;2023-02-02T17:19:21;99672.31;;;9.03;53.02
54900;BME280;40801;41.924;25.562;2023-02-02T17:21:47;99692.84;;;8.94;54.80
54900;BME280;40801;41.924;25.562;2023-02-02T17:24:15;99694.41;;;8.76;55.53
54900;BME280;40801;41.924;25.562;2023-02-02T17:26:40;99723.50;;;8.69;56.51
54900;BME280;40801;41.924;25.562;2023-02-02T17:29:09;99736.06;;;8.11;61.24
54900;BME280;40801;41.924;25.562;2023-02-02T17:31:36;99751.41;;;8.00;61.57
54900;BME280;40801;41.924;25.562;2023-02-02T17:34:02;99751.81;;;7.24;66.17
54900;BME280;40801;41.924;25.562;2023-02-02T17:36:28;99764.41;;;7.13;66.45
54900;BME280;40801;41.924;25.562;2023-02-02T17:38:53;99767.34;;;7.22;66.17
54900;BME280;40801;41.924;25.562;2023-02-02T17:41:20;99760.34;;;7.31;65.80
54900;BME280;40801;41.924;25.562;2023-02-02T17:43:46;99759.28;;;7.32;65.09
54900;BME280;40801;41.924;25.562;2023-02-02T17:46:11;99774.59;;;7.21;66.10
54900;BME280;40801;41.924;25.562;2023-02-02T17:48:37;99778.16;;;6.96;67.14
54900;BME280;40801;41.924;25.562;2023-02-02T17:51:03;99776.00;;;6.98;66.37
54900;BME280;40801;41.924;25.562;2023-02-02T17:53:31;99771.16;;;7.05;66.26
54900;BME280;40801;41.924;25.562;2023-02-02T17:55:56;99767.13;;;7.03;65.63
54900;BME280;40801;41.924;25.562;2023-02-02T17:58:22;99778.66;;;7.08;65.51
54900;BME280;40801;41.924;25.562;2023-02-02T18:00:52;99778.63;;;7.19;65.79
54900;BME280;40801;41.924;25.562;2023-02-02T18:05:46;99699.06;;;6.89;65.83
54900;BME280;40801;41.924;25.562;2023-02-02T18:08:12;99699.34;;;6.82;65.53
54900;BME280;40801;41.924;25.562;2023-02-02T18:10:38;99683.84;;;6.59;66.97
54900;BME280;40801;41.924;25.562;2023-02-02T18:13:04;99687.91;;;6.31;68.74
54900;BME280;40801;41.924;25.562;2023-02-02T18:15:29;99703.16;;;6.25;68.77
54900;BME280;40801;41.924;25.562;2023-02-02T18:17:55;99682.28;;;6.47;66.58
54900;BME280;40801;41.924;25.562;2023-02-02T18:20:21;99669.69;;;6.48;66.26
54900;BME280;40801;41.924;25.562;2023-02-02T18:22:46;99675.56;;;6.35;66.98
54900;BME280;40801;41.924;25.562;2023-02-02T18:25:13;99683.63;;;6.25;66.71
54900;BME280;40801;41.924;25.562;2023-02-02T18:27:38;99684.69;;;6.24;66.95
54900;BME280;40801;41.924;25.562;2023-02-02T18:30:04;99679.34;;;6.13;67.45
54900;BME280;40801;41.924;25.562;2023-02-02T18:32:35;99691.66;;;6.19;67.16
54900;BME280;40801;41.924;25.562;2023-02-02T18:35:03;99698.09;;;6.13;67.25
54900;BME280;40801;41.924;25.562;2023-02-02T18:37:29;99687.38;;;6.08;66.74
54900;BME280;40801;41.924;25.562;2023-02-02T18:39:54;99678.56;;;6.08;66.47
54900;BME280;40801;41.924;25.562;2023-02-02T18:42:19;99680.16;;;6.09;67.11
54900;BME280;40801;41.924;25.562;2023-02-02T18:44:45;99677.75;;;6.07;66.78
54900;BME280;40801;41.924;25.562;2023-02-02T18:47:10;99675.03;;;6.02;67.22
54900;BME280;40801;41.924;25.562;2023-02-02T18:49:36;99686.56;;;5.98;67.37
54900;BME280;40801;41.924;25.562;2023-02-02T18:52:01;99673.47;;;6.16;65.82
54900;BME280;40801;41.924;25.562;2023-02-02T18:54:27;99665.97;;;6.18;66.50
54900;BME280;40801;41.924;25.562;2023-02-02T18:56:52;99678.25;;;6.25;67.24
54900;BME280;40801;41.924;25.562;2023-02-02T18:59:17;99690.84;;;6.34;65.70
54900;BME280;40801;41.924;25.562;2023-02-02T19:01:43;99698.88;;;6.29;67.01
54900;BME280;40801;41.924;25.562;2023-02-02T19:04:08;99691.38;;;6.41;65.20
54900;BME280;40801;41.924;25.562;2023-02-02T19:06:34;99698.34;;;6.52;64.45
54900;BME280;40801;41.924;25.562;2023-02-02T19:09:18;99681.72;;;6.50;64.42
54900;BME280;40801;41.924;25.562;2023-02-02T19:11:48;99669.13;;;6.56;64.34
54900;BME280;40801;41.924;25.562;2023-02-02T19:14:17;99664.53;;;6.62;63.92
54900;BME280;40801;41.924;25.562;2023-02-02T19:16:44;99667.22;;;6.62;63.86
54900;BME280;40801;41.924;25.562;2023-02-02T19:19:22;99661.34;;;6.55;64.10
54900;BME280;40801;41.924;25.562;2023-02-02T19:21:54;99661.59;;;6.63;63.41
54900;BME280;40801;41.924;25.562;2023-02-02T19:24:20;99659.47;;;6.65;63.51
54900;BME280;40801;41.924;25.562;2023-02-02T19:26:47;99670.72;;;6.67;63.44
54900;BME280;40801;41.924;25.562;2023-02-02T19:29:24;99679.56;;;6.68;62.52